createdAt,value
2023-01-06T00:01:16.272Z,6.07
2023-01-06T00:04:08.039Z,5.00
2023-01-06T00:06:12.365Z,5.20
2023-01-06T00:08:14.308Z,4.50
2023-01-06T00:10:16.507Z,4.50
2023-01-06T00:12:18.732Z,3.93
2023-01-06T00:22:02.665Z,5.97
2023-01-06T00:24:04.812Z,7.50
2023-01-06T00:26:08.884Z,6.90
2023-01-06T00:28:11.105Z,4.30
2023-01-06T00:30:13.462Z,3.20
2023-01-06T00:32:15.794Z,3.67
2023-01-06T00:34:17.805Z,8.70
2023-01-06T00:36:22.039Z,7.47
2023-01-06T00:38:24.153Z,6.20
2023-01-06T00:40:26.368Z,4.93
2023-01-06T00:42:28.530Z,5.60
2023-01-06T00:44:35.690Z,6.60
2023-01-06T00:46:38.432Z,6.03
2023-01-06T00:48:45.079Z,7.13
2023-01-06T00:50:59.801Z,6.17
2023-01-06T00:53:02.320Z,6.50
2023-01-06T00:55:05.997Z,11.03
2023-01-06T00:57:10.845Z,10.67
2023-01-06T00:59:14.941Z,7.63
2023-01-06T01:01:17.488Z,6.40
2023-01-06T01:03:20.141Z,6.37
2023-01-06T01:05:22.443Z,12.90
2023-01-06T01:07:24.565Z,20.50
2023-01-06T01:09:30.981Z,39.87
2023-01-06T01:11:51.851Z,70.53
2023-01-06T01:13:53.937Z,47.50
2023-01-06T01:15:56.092Z,67.20
2023-01-06T01:17:58.173Z,52.57
2023-01-06T01:20:01.419Z,24.57
2023-01-06T01:22:04.462Z,13.87
2023-01-06T01:24:07.141Z,10.13
2023-01-06T01:26:09.459Z,8.00
2023-01-06T01:28:11.802Z,17.73
2023-01-06T01:30:13.867Z,10.60
2023-01-06T01:32:16.288Z,7.63
2023-01-06T01:34:19.372Z,12.53
2023-01-06T01:36:21.769Z,10.60
2023-01-06T01:38:28.724Z,14.73
2023-01-06T01:40:31.020Z,49.03
2023-01-06T01:42:33.168Z,40.27
2023-01-06T01:44:57.148Z,22.03
2023-01-06T01:46:59.334Z,65.50
2023-01-06T01:49:07.129Z,82.13
2023-01-06T01:51:12.978Z,67.90
2023-01-06T01:53:28.569Z,51.93
2023-01-06T01:55:32.744Z,24.87
2023-01-06T01:57:50.665Z,14.17
2023-01-06T01:59:53.281Z,6.13
2023-01-06T02:01:55.918Z,5.80
2023-01-06T02:03:59.825Z,4.60
2023-01-06T02:06:06.919Z,27.90
2023-01-06T02:08:33.906Z,24.77
2023-01-06T02:10:36.028Z,19.00
2023-01-06T02:12:40.337Z,8.67
2023-01-06T02:14:42.587Z,6.23
2023-01-06T02:16:47.427Z,26.17
2023-01-06T02:19:18.501Z,22.87
2023-01-06T02:22:12.061Z,32.53
2023-01-06T02:24:32.532Z,17.20
2023-01-06T02:26:56.854Z,11.27
2023-01-06T02:28:58.772Z,7.70
2023-01-06T02:31:19.533Z,5.60
2023-01-06T02:33:27.685Z,12.27
2023-01-06T02:36:05.386Z,11.00
2023-01-06T02:38:19.601Z,13.87
2023-01-06T02:40:41.675Z,9.20
2023-01-06T02:42:58.755Z,7.43
2023-01-06T02:45:15.173Z,4.67
2023-01-06T02:47:33.942Z,20.43
2023-01-06T02:49:46.240Z,32.00
2023-01-06T02:52:13.764Z,19.47
2023-01-06T02:54:42.797Z,11.63
2023-01-06T02:56:50.812Z,6.43
2023-01-06T02:59:02.967Z,4.90
2023-01-06T03:01:24.304Z,5.80
2023-01-06T03:03:31.387Z,14.63
2023-01-06T03:05:36.343Z,11.80
2023-01-06T03:07:40.427Z,10.80
2023-01-06T03:09:44.587Z,7.73
2023-01-06T03:11:51.343Z,7.67
2023-01-06T03:14:04.063Z,24.90
2023-01-06T03:16:07.007Z,23.13
2023-01-06T03:18:09.378Z,29.20
2023-01-06T03:20:14.022Z,57.13
2023-01-06T03:22:17.497Z,47.83
2023-01-06T03:24:19.918Z,26.53
2023-01-06T03:26:27.789Z,11.80
2023-01-06T03:28:30.646Z,8.63
2023-01-06T03:30:52.625Z,11.87
2023-01-06T03:33:14.234Z,15.80
2023-01-06T03:35:26.024Z,10.57
2023-01-06T03:37:39.749Z,7.37
2023-01-06T03:40:06.519Z,5.67
2023-01-06T03:43:00.308Z,5.47
2023-01-06T03:45:39.054Z,9.47
2023-01-06T03:48:23.368Z,6.20
2023-01-06T03:50:41.121Z,7.87
2023-01-06T03:52:50.498Z,10.53
2023-01-06T03:55:03.263Z,15.30
2023-01-06T03:57:15.898Z,10.00
2023-01-06T03:59:27.201Z,8.50
2023-01-06T04:01:30.900Z,9.20
2023-01-06T04:03:33.611Z,7.20
2023-01-06T04:05:35.936Z,10.53
2023-01-06T04:07:41.388Z,22.27
2023-01-06T04:09:43.884Z,41.13
2023-01-06T04:12:04.872Z,35.93
2023-01-06T04:14:10.696Z,23.10
2023-01-06T04:16:13.458Z,15.90
2023-01-06T04:18:15.645Z,12.43
2023-01-06T04:20:22.390Z,9.33
2023-01-06T04:22:28.384Z,9.37
2023-01-06T04:24:30.768Z,9.33
2023-01-06T04:26:34.089Z,8.80
2023-01-06T04:28:36.620Z,8.87
2023-01-06T04:30:38.769Z,9.07
2023-01-06T04:32:50.091Z,9.37
2023-01-06T04:34:52.234Z,9.73
2023-01-06T04:36:54.364Z,8.40
2023-01-06T04:38:56.907Z,8.37
2023-01-06T04:40:59.041Z,9.77
2023-01-06T04:43:16.096Z,10.40
2023-01-06T04:45:18.295Z,9.93
2023-01-06T04:47:20.414Z,9.60
2023-01-06T04:49:22.747Z,10.10
2023-01-06T04:51:24.874Z,12.40
2023-01-06T04:53:26.979Z,16.43
2023-01-06T04:55:29.121Z,18.50
2023-01-06T04:57:31.189Z,19.57
2023-01-06T04:59:33.726Z,16.23
2023-01-06T05:01:36.864Z,18.17
2023-01-06T05:03:40.132Z,15.47
2023-01-06T05:05:43.987Z,15.90
2023-01-06T05:07:48.553Z,15.57
2023-01-06T05:09:50.613Z,13.90
2023-01-06T05:11:52.656Z,12.97
2023-01-06T05:13:55.078Z,13.93
2023-01-06T05:15:57.280Z,22.23
2023-01-06T05:17:59.319Z,22.40
2023-01-06T05:20:01.403Z,33.67
2023-01-06T05:22:03.557Z,28.97
2023-01-06T05:24:05.660Z,23.97
2023-01-06T05:26:09.414Z,22.83
2023-01-06T05:28:11.584Z,35.30
2023-01-06T05:30:14.088Z,54.97
2023-01-06T05:32:16.117Z,40.27
2023-01-06T05:34:18.168Z,36.53
2023-01-06T05:36:20.266Z,26.50
2023-01-06T05:38:25.643Z,22.00
2023-01-06T05:40:28.536Z,43.90
2023-01-06T05:42:30.617Z,58.30
2023-01-06T05:44:32.783Z,77.17
2023-01-06T05:46:34.915Z,89.80
2023-01-06T05:48:38.149Z,84.93
2023-01-06T05:50:40.476Z,45.93
2023-01-06T05:52:42.567Z,28.83
2023-01-06T05:54:45.025Z,14.17
2023-01-06T05:56:47.229Z,9.97
2023-01-06T05:58:51.938Z,9.83
2023-01-06T06:00:54.478Z,6.97
2023-01-06T06:02:56.711Z,6.03
2023-01-06T06:04:59.077Z,6.93
2023-01-06T06:07:01.250Z,6.93
2023-01-06T06:09:05.539Z,9.53
2023-01-06T06:11:10.021Z,9.47
2023-01-06T06:13:12.097Z,8.17
2023-01-06T06:15:14.664Z,12.30
2023-01-06T06:17:16.740Z,62.10
2023-01-06T06:19:18.764Z,32.03
2023-01-06T06:21:23.521Z,32.07
2023-01-06T06:23:26.066Z,30.77
2023-01-06T06:25:29.706Z,27.60
2023-01-06T06:27:32.050Z,23.77
2023-01-06T06:29:34.880Z,31.83
2023-01-06T06:31:37.439Z,21.83
2023-01-06T06:33:40.450Z,19.27
2023-01-06T06:35:42.582Z,31.70
2023-01-06T06:37:44.828Z,48.90
2023-01-06T06:39:47.016Z,51.83
2023-01-06T06:41:51.287Z,45.80
2023-01-06T06:43:53.727Z,42.83
2023-01-06T06:45:55.731Z,43.00
2023-01-06T06:47:57.792Z,39.27
2023-01-06T06:50:00.032Z,32.23
2023-01-06T06:52:02.165Z,25.80
2023-01-06T06:54:04.948Z,22.30
2023-01-06T06:56:08.319Z,23.63
2023-01-06T06:58:10.812Z,41.47
2023-01-06T07:00:13.429Z,41.13
2023-01-06T07:02:16.044Z,39.63
2023-01-06T07:04:18.329Z,38.53
2023-01-06T07:06:24.765Z,35.20
2023-01-06T07:08:28.101Z,33.60
2023-01-06T07:10:34.022Z,30.93
2023-01-06T07:12:36.137Z,25.17
2023-01-06T07:14:38.262Z,23.27
2023-01-06T07:16:40.222Z,29.90
2023-01-06T07:18:42.311Z,26.13
2023-01-06T07:20:49.057Z,24.97
2023-01-06T07:22:51.255Z,20.83
2023-01-06T07:24:53.276Z,20.60
2023-01-06T07:26:55.604Z,25.53
2023-01-06T07:28:57.669Z,30.00
2023-01-06T07:31:00.514Z,26.83
2023-01-06T07:33:05.514Z,24.80
2023-01-06T07:35:08.069Z,22.70
2023-01-06T07:37:10.077Z,22.00
2023-01-06T07:39:13.249Z,25.20
2023-01-06T07:41:17.646Z,31.53
2023-01-06T07:43:20.183Z,33.33
2023-01-06T07:45:22.530Z,32.73
2023-01-06T07:47:24.837Z,33.37
2023-01-06T07:49:27.067Z,33.87
2023-01-06T07:51:29.281Z,33.50
2023-01-06T07:53:31.269Z,40.57
2023-01-06T07:55:33.609Z,41.43
2023-01-06T07:57:36.087Z,41.47
2023-01-06T07:59:38.230Z,33.23
2023-01-06T08:01:43.151Z,32.23
2023-01-06T08:03:45.744Z,34.70
2023-01-06T08:05:48.246Z,33.27
2023-01-06T08:07:50.577Z,34.37
2023-01-06T08:09:52.877Z,36.10
2023-01-06T08:11:55.444Z,35.23
2023-01-06T08:13:57.655Z,37.43
2023-01-06T08:16:04.454Z,42.43
2023-01-06T08:18:07.639Z,44.13
2023-01-06T08:20:11.616Z,40.07
2023-01-06T08:22:14.009Z,38.63
2023-01-06T08:24:16.355Z,37.53
2023-01-06T08:26:18.893Z,32.90
2023-01-06T08:28:21.314Z,33.20
2023-01-06T08:30:23.664Z,36.50
2023-01-06T08:32:25.909Z,32.20
2023-01-06T08:34:28.239Z,28.80
2023-01-06T08:36:32.949Z,28.97
2023-01-06T08:38:36.724Z,38.67
2023-01-06T08:40:44.042Z,33.80
2023-01-06T08:42:46.566Z,34.37
2023-01-06T08:44:48.953Z,28.87
2023-01-06T08:46:51.105Z,26.93
2023-01-06T08:48:53.210Z,26.30
2023-01-06T08:50:56.978Z,25.27
2023-01-06T08:52:59.065Z,24.33
2023-01-06T08:55:01.608Z,21.40
2023-01-06T08:57:03.910Z,21.30
2023-01-06T08:59:08.698Z,19.97
2023-01-06T09:01:22.600Z,20.80
2023-01-06T09:03:24.937Z,19.60
2023-01-06T09:05:27.619Z,16.03
2023-01-06T09:07:35.942Z,14.80
2023-01-06T09:09:38.061Z,19.27
2023-01-06T09:11:45.650Z,19.70
2023-01-06T09:13:51.778Z,19.10
2023-01-06T09:15:57.698Z,22.47
2023-01-06T09:17:59.974Z,24.57
2023-01-06T09:20:02.410Z,24.40
2023-01-06T09:22:07.855Z,20.43
2023-01-06T09:24:14.221Z,18.20
2023-01-06T09:26:18.304Z,23.70
2023-01-06T09:28:20.805Z,23.37
2023-01-06T09:30:25.543Z,14.80
2023-01-06T09:32:27.825Z,11.80
2023-01-06T09:34:31.258Z,13.17
2023-01-06T09:36:34.687Z,14.13
2023-01-06T09:38:36.945Z,18.43
2023-01-06T09:41:17.523Z,16.57
2023-01-06T09:43:43.839Z,136.33
2023-01-06T09:45:58.233Z,107.53
2023-01-06T09:48:04.196Z,92.27
2023-01-06T09:50:15.475Z,56.23
2023-01-06T09:52:40.587Z,45.27
2023-01-06T09:55:05.683Z,73.40
2023-01-06T09:57:17.060Z,44.90
2023-01-06T09:59:29.827Z,32.70
2023-01-06T10:01:38.244Z,17.17
2023-01-06T10:03:41.190Z,10.13
2023-01-06T10:06:05.264Z,9.60
2023-01-06T10:08:23.977Z,12.70
2023-01-06T10:10:54.863Z,10.93
2023-01-06T10:13:06.090Z,12.00
2023-01-06T10:15:17.222Z,13.57
2023-01-06T10:17:46.463Z,7.83
2023-01-06T10:20:03.711Z,6.83
2023-01-06T10:22:31.811Z,9.87
2023-01-06T10:24:45.685Z,6.00
2023-01-06T10:26:56.647Z,7.77
2023-01-06T10:29:19.471Z,12.80
2023-01-06T10:31:26.734Z,13.43
2023-01-06T10:33:57.144Z,16.50
2023-01-06T10:36:00.754Z,12.37
2023-01-06T10:38:10.745Z,10.07
2023-01-06T10:40:21.480Z,6.43
2023-01-06T10:42:52.018Z,6.03
2023-01-06T10:44:54.821Z,33.50
2023-01-06T10:46:57.378Z,25.67
2023-01-06T10:48:59.436Z,60.77
2023-01-06T10:51:28.386Z,50.60
2023-01-06T10:53:30.688Z,16.37
2023-01-06T10:55:35.343Z,11.93
2023-01-06T10:57:41.750Z,16.20
2023-01-06T11:00:12.678Z,19.53
2023-01-06T11:02:23.880Z,26.50
2023-01-06T11:04:28.014Z,22.33
2023-01-06T11:06:31.735Z,14.43
2023-01-06T11:08:35.662Z,11.00
2023-01-06T11:10:39.929Z,7.40
2023-01-06T11:12:46.577Z,13.80
2023-01-06T11:14:59.625Z,7.53
2023-01-06T11:17:14.885Z,7.70
2023-01-06T11:19:35.099Z,4.10
2023-01-06T11:21:46.926Z,5.40
2023-01-06T11:23:49.952Z,5.50
2023-01-06T11:26:12.214Z,4.87
2023-01-06T11:28:21.072Z,8.57
2023-01-06T11:30:28.894Z,13.53
2023-01-06T11:32:30.968Z,8.33
2023-01-06T11:34:33.923Z,10.53
2023-01-06T11:36:46.716Z,9.90
2023-01-06T11:38:51.907Z,17.13
2023-01-06T11:40:54.899Z,15.50
2023-01-06T11:43:00.896Z,10.40
2023-01-06T11:45:05.744Z,8.23
2023-01-06T11:47:28.208Z,7.97
2023-01-06T11:49:43.991Z,9.90
2023-01-06T11:51:50.015Z,9.70
2023-01-06T11:53:57.542Z,9.50
2023-01-06T11:56:03.005Z,12.10
2023-01-06T11:58:18.651Z,16.87
2023-01-06T12:01:03.800Z,12.47
2023-01-06T12:03:35.453Z,13.77
2023-01-06T12:05:37.957Z,12.47
2023-01-06T12:07:52.901Z,17.37
2023-01-06T12:10:03.160Z,13.80
2023-01-06T12:12:07.909Z,12.50
2023-01-06T12:14:27.958Z,18.07
2023-01-06T12:16:48.228Z,14.07
2023-01-06T12:18:52.850Z,13.40
2023-01-06T12:20:58.557Z,7.60
2023-01-06T12:23:02.274Z,4.00
2023-01-06T12:25:06.641Z,5.93
2023-01-06T12:27:13.342Z,7.53
2023-01-06T12:29:20.816Z,5.17
2023-01-06T12:32:00.764Z,4.85
2023-01-06T12:34:13.034Z,5.17
2023-01-06T12:36:33.531Z,3.80
2023-01-06T12:39:04.624Z,7.63
2023-01-06T12:41:17.613Z,6.20
2023-01-06T12:43:22.854Z,8.17
2023-01-06T12:45:46.700Z,10.60
2023-01-06T12:47:55.496Z,10.33
2023-01-06T12:50:30.719Z,13.53
2023-01-06T12:52:38.915Z,10.03
2023-01-06T12:54:46.084Z,14.33
2023-01-06T12:57:15.386Z,17.80
2023-01-06T12:59:45.519Z,15.90
2023-01-06T13:02:00.101Z,11.47
2023-01-06T13:04:22.524Z,10.27
2023-01-06T13:06:34.365Z,6.77
2023-01-06T13:08:48.274Z,8.10
2023-01-06T13:10:59.840Z,5.27
2023-01-06T13:13:29.757Z,4.43
2023-01-06T13:15:34.592Z,6.03
2023-01-06T13:17:42.477Z,6.53
2023-01-06T13:19:56.245Z,7.23
2023-01-06T13:22:01.795Z,7.27
2023-01-06T13:24:22.052Z,6.77
2023-01-06T13:26:30.296Z,10.17
2023-01-06T13:29:12.730Z,11.03
2023-01-06T13:31:33.902Z,7.73
2023-01-06T13:34:23.251Z,6.83
2023-01-06T13:36:31.280Z,4.30
2023-01-06T13:38:58.475Z,3.97
2023-01-06T13:41:04.529Z,11.70
2023-01-06T13:43:16.550Z,10.67
2023-01-06T13:45:30.826Z,11.73
2023-01-06T13:47:34.218Z,12.33
2023-01-06T13:49:38.442Z,11.53
2023-01-06T13:51:42.851Z,22.20
2023-01-06T13:53:46.831Z,20.33
2023-01-06T13:56:09.501Z,16.97
2023-01-06T13:58:24.071Z,20.80
2023-01-06T14:00:28.570Z,19.23
2023-01-06T14:02:38.394Z,14.47
2023-01-06T14:04:46.048Z,13.63
2023-01-06T14:06:51.561Z,13.53
2023-01-06T14:08:57.366Z,13.47
2023-01-06T14:11:02.918Z,11.63
2023-01-06T14:13:18.519Z,11.90
2023-01-06T14:15:33.469Z,11.33
2023-01-06T14:17:44.413Z,10.73
2023-01-06T14:19:54.469Z,10.23
2023-01-06T14:22:15.143Z,11.70
2023-01-06T14:24:31.742Z,10.50
2023-01-06T14:26:58.739Z,15.67
2023-01-06T14:29:39.594Z,15.67
2023-01-06T14:31:42.231Z,16.67
2023-01-06T14:33:45.417Z,14.80
2023-01-06T14:35:53.604Z,15.10
2023-01-06T14:38:02.225Z,13.87
2023-01-06T14:40:06.324Z,14.53
2023-01-06T14:42:30.081Z,12.87
2023-01-06T14:44:46.845Z,11.63
2023-01-06T14:46:53.000Z,11.47
2023-01-06T14:49:04.464Z,11.13
2023-01-06T14:51:11.389Z,9.57
2023-01-06T14:53:29.870Z,8.43
2023-01-06T14:55:35.821Z,7.80
2023-01-06T14:57:39.933Z,7.97
2023-01-06T14:59:42.106Z,8.17
2023-01-06T15:01:56.692Z,8.43
2023-01-06T15:04:02.295Z,7.63
2023-01-06T15:06:21.168Z,7.87
2023-01-06T15:08:23.653Z,8.10
2023-01-06T15:10:27.207Z,8.20
2023-01-06T15:12:32.938Z,8.17
2023-01-06T15:14:35.561Z,9.40
2023-01-06T15:16:37.629Z,11.33
2023-01-06T15:18:43.677Z,10.77
2023-01-06T15:20:46.618Z,12.80
2023-01-06T15:22:51.373Z,14.13
2023-01-06T15:24:55.419Z,13.53
2023-01-06T15:27:05.262Z,14.07
2023-01-06T15:29:15.780Z,16.03
2023-01-06T15:31:19.519Z,18.63
2023-01-06T15:33:24.156Z,18.43
2023-01-06T15:35:29.765Z,18.10
2023-01-06T15:37:35.214Z,18.57
2023-01-06T15:39:39.617Z,17.57
2023-01-06T15:41:42.079Z,14.83
2023-01-06T15:43:46.098Z,12.20
2023-01-06T15:46:10.463Z,10.80
2023-01-06T15:48:18.763Z,10.40
2023-01-06T15:50:23.781Z,12.70
2023-01-06T15:52:33.077Z,10.13
2023-01-06T15:54:38.206Z,11.87
2023-01-06T15:56:40.291Z,11.03
2023-01-06T15:58:43.405Z,11.87
2023-01-06T16:00:51.251Z,11.60
2023-01-06T16:02:54.080Z,11.43
2023-01-06T16:04:59.455Z,10.47
2023-01-06T16:07:32.792Z,9.13
2023-01-06T16:09:36.597Z,10.60
2023-01-06T16:11:56.610Z,9.10
2023-01-06T16:13:59.351Z,8.67
2023-01-06T16:16:30.490Z,9.27
2023-01-06T16:18:37.329Z,8.80
2023-01-06T16:20:39.767Z,8.00
2023-01-06T16:22:51.295Z,8.53
2023-01-06T16:24:53.644Z,9.23
2023-01-06T16:26:59.914Z,17.10
2023-01-06T16:29:05.642Z,20.47
2023-01-06T16:31:13.043Z,34.40
2023-01-06T16:33:35.301Z,34.57
2023-01-06T16:35:37.481Z,35.30
2023-01-06T16:37:39.883Z,29.03
2023-01-06T16:39:42.642Z,27.73
2023-01-06T16:42:01.032Z,26.37
2023-01-06T16:44:03.121Z,21.43
2023-01-06T16:46:19.779Z,13.80
2023-01-06T16:48:21.839Z,14.57
2023-01-06T16:50:25.653Z,15.83
2023-01-06T16:52:27.594Z,16.40
2023-01-06T16:54:30.693Z,15.20
2023-01-06T16:56:32.726Z,16.77
2023-01-06T16:58:35.905Z,16.27
2023-01-06T17:00:40.746Z,15.93
2023-01-06T17:02:43.477Z,14.30
2023-01-06T17:04:47.302Z,14.20
2023-01-06T17:06:49.622Z,15.43
2023-01-06T17:08:54.698Z,15.93
2023-01-06T17:11:00.269Z,17.60
2023-01-06T17:13:23.630Z,25.07
2023-01-06T17:15:26.154Z,25.17
2023-01-06T17:17:28.937Z,24.60
2023-01-06T17:19:34.299Z,28.47
2023-01-06T17:21:39.055Z,27.17
2023-01-06T17:23:56.498Z,25.67
2023-01-06T17:26:02.907Z,27.77
2023-01-06T17:28:18.291Z,49.87
2023-01-06T17:30:20.653Z,73.00
2023-01-06T17:32:31.989Z,52.90
2023-01-06T17:34:37.041Z,96.50
2023-01-06T17:36:44.315Z,59.30
2023-01-06T17:38:48.901Z,46.07
2023-01-06T17:40:54.871Z,52.50
2023-01-06T17:43:10.413Z,43.10
2023-01-06T17:45:19.107Z,25.83
2023-01-06T17:47:21.072Z,22.47
2023-01-06T17:49:23.083Z,19.17
2023-01-06T17:51:27.821Z,18.00
2023-01-06T17:53:51.130Z,17.77
2023-01-06T17:55:53.323Z,29.10
2023-01-06T17:57:58.100Z,66.87
2023-01-06T18:00:01.450Z,34.43
2023-01-06T18:02:20.261Z,36.93
2023-01-06T18:04:25.857Z,62.00
2023-01-06T18:06:37.630Z,61.80
2023-01-06T18:08:39.865Z,42.93
2023-01-06T18:10:55.135Z,48.73
2023-01-06T18:12:58.816Z,56.87
2023-01-06T18:15:04.967Z,90.87
2023-01-06T18:17:29.092Z,81.10
2023-01-06T18:19:37.546Z,69.73
2023-01-06T18:21:40.805Z,54.47
2023-01-06T18:23:45.533Z,48.10
2023-01-06T18:25:50.687Z,41.97
2023-01-06T18:27:52.701Z,37.07
2023-01-06T18:30:00.743Z,52.50
2023-01-06T18:32:20.127Z,65.13
2023-01-06T18:34:27.135Z,68.13
2023-01-06T18:36:29.067Z,60.60
2023-01-06T18:38:31.130Z,51.93
2023-01-06T18:40:36.751Z,47.87
2023-01-06T18:42:47.002Z,64.73
2023-01-06T18:44:51.792Z,70.53
2023-01-06T18:46:54.083Z,69.50
2023-01-06T18:48:56.166Z,61.83
2023-01-06T18:51:00.617Z,59.20
2023-01-06T18:53:15.815Z,44.57
2023-01-06T18:55:39.065Z,43.47
2023-01-06T18:57:46.051Z,37.13
2023-01-06T18:59:48.322Z,38.47
2023-01-06T19:01:56.442Z,39.33
2023-01-06T19:03:58.566Z,56.67
2023-01-06T19:06:45.099Z,66.93
2023-01-06T19:08:50.908Z,88.77
2023-01-06T19:10:52.918Z,100.17
2023-01-06T19:13:00.643Z,92.97
2023-01-06T19:15:23.391Z,97.57
2023-01-06T19:17:31.424Z,79.53
2023-01-06T19:19:40.490Z,63.47
2023-01-06T19:21:43.965Z,62.33
2023-01-06T19:23:46.560Z,75.47
2023-01-06T19:26:05.680Z,82.40
2023-01-06T19:28:30.409Z,81.73
2023-01-06T19:30:42.590Z,82.53
2023-01-06T19:32:44.736Z,71.73
2023-01-06T19:34:46.975Z,68.83
2023-01-06T19:36:52.398Z,63.63
2023-01-06T19:38:54.517Z,81.33
2023-01-06T19:41:01.394Z,73.03
2023-01-06T19:43:27.288Z,74.83
2023-01-06T19:45:36.081Z,58.60
2023-01-06T19:47:42.261Z,51.67
2023-01-06T19:49:49.801Z,50.87
2023-01-06T19:51:54.301Z,63.17
2023-01-06T19:54:11.651Z,71.90
2023-01-06T19:56:32.539Z,92.37
2023-01-06T19:58:35.963Z,103.43
2023-01-06T20:00:48.809Z,112.77
2023-01-06T20:02:53.751Z,90.23
2023-01-06T20:04:56.525Z,48.90
2023-01-06T20:06:58.510Z,34.10
2023-01-06T20:09:01.035Z,48.00
2023-01-06T20:11:03.442Z,46.57
2023-01-06T20:13:06.224Z,49.50
2023-01-06T20:15:09.366Z,49.77
2023-01-06T20:17:11.619Z,48.40
2023-01-06T20:19:15.795Z,47.20
2023-01-06T20:21:18.050Z,40.10
2023-01-06T20:23:20.147Z,35.57
2023-01-06T20:25:22.636Z,40.73
2023-01-06T20:27:24.873Z,41.73
2023-01-06T20:29:26.720Z,44.40
2023-01-06T20:31:28.959Z,44.87
2023-01-06T20:33:31.382Z,43.93
2023-01-06T20:35:33.575Z,52.37
2023-01-06T20:37:36.034Z,71.20
2023-01-06T20:39:38.118Z,84.60
2023-01-06T20:41:40.355Z,46.17
2023-01-06T20:43:42.442Z,37.53
2023-01-06T20:45:45.022Z,40.57
2023-01-06T20:47:47.241Z,40.40
2023-01-06T20:49:49.522Z,34.70
2023-01-06T20:51:52.836Z,31.53
2023-01-06T20:53:55.031Z,33.67
2023-01-06T20:55:57.244Z,51.33
2023-01-06T20:57:59.729Z,44.40
2023-01-06T21:00:02.289Z,34.27
2023-01-06T21:02:04.966Z,33.47
2023-01-06T21:04:07.201Z,37.27
2023-01-06T21:06:09.280Z,51.47
2023-01-06T21:08:11.455Z,47.37
2023-01-06T21:11:03.999Z,44.03
2023-01-06T21:13:06.356Z,54.80
2023-01-06T21:15:09.349Z,40.10
2023-01-06T21:17:12.225Z,48.50
2023-01-06T21:19:14.240Z,43.33
2023-01-06T21:21:16.803Z,50.97
2023-01-06T21:23:18.921Z,57.70
2023-01-06T21:25:21.062Z,80.23
2023-01-06T21:27:23.522Z,74.60
2023-01-06T21:29:26.129Z,53.57
2023-01-06T21:31:28.422Z,52.27
2023-01-06T21:33:30.526Z,43.93
2023-01-06T21:35:33.946Z,49.10
2023-01-06T21:37:35.973Z,58.83
2023-01-06T21:39:38.073Z,58.67
2023-01-06T21:41:58.503Z,68.70
2023-01-06T21:44:00.458Z,70.67
2023-01-06T21:46:06.530Z,76.63
2023-01-06T21:48:09.548Z,43.90
2023-01-06T21:50:13.023Z,34.43
2023-01-06T21:52:16.149Z,25.53
2023-01-06T21:54:18.570Z,21.10
2023-01-06T21:56:20.639Z,19.60
2023-01-06T21:58:23.418Z,32.67
2023-01-06T22:00:25.771Z,35.83
2023-01-06T22:02:28.021Z,33.67
2023-01-06T22:04:30.347Z,25.93
2023-01-06T22:06:33.362Z,27.43
2023-01-06T22:08:37.822Z,36.10
2023-01-06T22:10:43.657Z,51.67
2023-01-06T22:12:48.536Z,48.83
2023-01-06T22:14:53.029Z,50.47
2023-01-06T22:16:55.226Z,47.00
2023-01-06T22:18:58.261Z,46.70
2023-01-06T22:21:04.116Z,55.27
2023-01-06T22:23:14.274Z,57.87
2023-01-06T22:25:16.498Z,61.70
2023-01-06T22:27:18.688Z,51.13
2023-01-06T22:29:20.879Z,56.03
2023-01-06T22:31:23.245Z,43.47
2023-01-06T22:33:25.281Z,45.20
2023-01-06T22:35:28.138Z,40.80
2023-01-06T22:37:30.279Z,37.37
2023-01-06T22:39:32.932Z,36.03
2023-01-06T22:41:34.921Z,35.70
2023-01-06T22:43:36.982Z,32.93
2023-01-06T22:45:39.024Z,29.50
2023-01-06T22:47:41.355Z,35.47
2023-01-06T22:49:45.045Z,39.50
2023-01-06T22:51:47.290Z,31.03
2023-01-06T22:53:49.265Z,24.27
2023-01-06T22:55:58.155Z,23.43
2023-01-06T22:58:00.166Z,25.37
2023-01-06T23:00:02.786Z,25.60
2023-01-06T23:02:05.495Z,20.83
2023-01-06T23:04:07.816Z,26.30
2023-01-06T23:06:12.684Z,26.53
2023-01-06T23:08:14.982Z,27.23
2023-01-06T23:10:17.327Z,28.10
2023-01-06T23:12:19.566Z,29.73
2023-01-06T23:14:21.712Z,26.77
2023-01-06T23:16:26.851Z,26.47
2023-01-06T23:18:31.819Z,26.67
2023-01-06T23:20:33.962Z,27.23
2023-01-06T23:22:36.200Z,33.60
2023-01-06T23:24:38.375Z,32.60
2023-01-06T23:26:45.901Z,32.87
2023-01-06T23:28:48.375Z,31.90
2023-01-06T23:30:50.618Z,32.30
2023-01-06T23:32:53.143Z,26.00
2023-01-06T23:34:55.253Z,25.47
2023-01-06T23:36:58.116Z,26.70
2023-01-06T23:39:25.875Z,26.67
2023-01-06T23:41:30.834Z,26.17
2023-01-06T23:43:36.152Z,26.47
2023-01-06T23:45:38.167Z,26.60
2023-01-06T23:47:40.469Z,30.43
2023-01-06T23:49:45.635Z,31.80
2023-01-06T23:51:47.801Z,31.80
2023-01-06T23:53:50.357Z,39.03
2023-01-06T23:56:05.561Z,39.73
2023-01-06T23:58:07.700Z,35.63
